createdAt,value
2023-02-04T00:00:24.484Z,101720.38
2023-02-04T00:02:52.809Z,101736.13
2023-02-04T00:05:21.974Z,101739.50
2023-02-04T00:07:49.582Z,101744.66
2023-02-04T00:10:17.397Z,101753.28
2023-02-04T00:12:44.987Z,101764.53
2023-02-04T00:15:12.589Z,101765.22
2023-02-04T00:17:40.349Z,101767.63
2023-02-04T00:20:08.467Z,101774.38
2023-02-04T00:22:37.409Z,101797.03
2023-02-04T00:25:05.414Z,101801.19
2023-02-04T00:27:33.010Z,101810.63
2023-02-04T00:30:00.784Z,101828.78
2023-02-04T00:32:28.395Z,101829.47
2023-02-04T00:34:56.189Z,101841.56
2023-02-04T00:37:23.939Z,101857.94
2023-02-04T00:39:52.918Z,101869.19
2023-02-04T00:42:20.496Z,101874.38
2023-02-04T00:44:48.108Z,101883.91
2023-02-04T00:47:15.831Z,101890.88
2023-02-04T00:49:43.497Z,101910.72
2023-02-04T00:52:11.140Z,101909.59
2023-02-04T00:54:38.735Z,101916.38
2023-02-04T00:57:07.650Z,101913.56
2023-02-04T00:59:35.266Z,101924.56
2023-02-04T01:02:03.496Z,101927.75
2023-02-04T01:04:31.382Z,101935.41
2023-02-04T01:06:59.341Z,101946.53
2023-02-04T01:09:27.811Z,101956.72
2023-02-04T01:11:55.532Z,101954.66
2023-02-04T01:14:24.470Z,101972.94
2023-02-04T01:16:52.153Z,101980.63
2023-02-04T01:19:21.028Z,101979.66
2023-02-04T01:21:48.618Z,101984.00
2023-02-04T01:24:16.228Z,101993.59
2023-02-04T01:27:06.843Z,101997.00
2023-02-04T01:29:35.779Z,102004.78
2023-02-04T01:32:03.507Z,102021.34
2023-02-04T01:34:31.547Z,102025.59
2023-02-04T01:36:59.229Z,102022.97
2023-02-04T01:39:27.048Z,102037.78
2023-02-04T01:41:54.738Z,102038.69
2023-02-04T01:44:22.477Z,102043.13
2023-02-04T01:46:51.446Z,102048.28
2023-02-04T01:49:19.253Z,102056.13
2023-02-04T01:51:46.954Z,102057.03
2023-02-04T01:54:17.477Z,102070.13
2023-02-04T01:56:48.680Z,102085.03
2023-02-04T01:59:17.609Z,102089.31
2023-02-04T02:01:47.139Z,102090.03
2023-02-04T02:04:18.061Z,102103.97
2023-02-04T02:06:50.282Z,102109.13
2023-02-04T02:09:18.126Z,102119.59
2023-02-04T02:11:45.815Z,102130.00
2023-02-04T02:14:14.100Z,102130.69
2023-02-04T02:16:42.101Z,102134.88
2023-02-04T02:19:14.764Z,102140.94
2023-02-04T02:21:49.063Z,102155.59
2023-02-04T02:24:29.602Z,102156.22
2023-02-04T02:27:00.446Z,102162.19
2023-02-04T02:29:28.606Z,102165.63
2023-02-04T02:31:57.696Z,102162.91
2023-02-04T02:34:28.422Z,102180.25
2023-02-04T02:36:56.754Z,102190.66
2023-02-04T02:39:25.195Z,102189.84
2023-02-04T02:41:55.767Z,102184.41
2023-02-04T02:44:24.086Z,102198.31
2023-02-04T02:46:52.031Z,102199.06
2023-02-04T02:49:20.705Z,102203.38
2023-02-04T02:51:49.222Z,102206.00
2023-02-04T02:54:22.433Z,102215.66
2023-02-04T02:56:51.858Z,102226.13
2023-02-04T02:59:21.473Z,102222.63
2023-02-04T03:01:52.814Z,102226.03
2023-02-04T03:04:23.524Z,102236.53
2023-02-04T03:06:52.321Z,102238.25
2023-02-04T03:09:20.842Z,102246.09
2023-02-04T03:11:49.377Z,102257.47
2023-02-04T03:14:17.234Z,102260.97
2023-02-04T03:16:47.873Z,102268.94
2023-02-04T03:19:15.800Z,102270.66
2023-02-04T03:21:44.290Z,102277.72
2023-02-04T03:24:12.015Z,102281.22
2023-02-04T03:26:39.718Z,102282.13
2023-02-04T03:29:09.173Z,102289.19
2023-02-04T03:31:37.794Z,102295.31
2023-02-04T03:34:06.836Z,102309.25
2023-02-04T03:36:34.550Z,102317.09
2023-02-04T03:39:02.592Z,102319.72
2023-02-04T03:41:30.321Z,102330.19
2023-02-04T03:43:57.987Z,102337.13
2023-02-04T03:46:26.026Z,102343.34
2023-02-04T03:48:53.788Z,102346.81
2023-02-04T03:51:22.784Z,102360.69
2023-02-04T03:53:50.378Z,102362.50
2023-02-04T03:56:18.120Z,102370.38
2023-02-04T03:58:45.734Z,102366.88
2023-02-04T04:01:13.412Z,102381.53
2023-02-04T04:03:41.093Z,102397.16
2023-02-04T04:06:10.169Z,102392.66
2023-02-04T04:08:39.675Z,102408.19
2023-02-04T04:11:07.415Z,102406.28
2023-02-04T04:13:35.133Z,102417.47
2023-02-04T04:16:03.539Z,102411.13
2023-02-04T04:18:31.224Z,102407.44
2023-02-04T04:20:58.820Z,102425.56
2023-02-04T04:23:26.498Z,102427.88
2023-02-04T04:25:55.560Z,102429.31
2023-02-04T04:28:23.279Z,102427.31
2023-02-04T04:30:50.945Z,102436.59
2023-02-04T04:33:18.571Z,102446.84
2023-02-04T04:35:46.175Z,102450.09
2023-02-04T04:38:13.922Z,102453.41
2023-02-04T04:40:41.527Z,102464.41
2023-02-04T04:43:10.511Z,102478.16
2023-02-04T04:45:38.090Z,102477.06
2023-02-04T04:48:06.201Z,102480.41
2023-02-04T04:50:34.225Z,102479.31
2023-02-04T04:53:02.102Z,102480.94
2023-02-04T04:55:29.710Z,102499.13
2023-02-04T04:57:57.567Z,102497.09
2023-02-04T05:00:26.807Z,102500.34
2023-02-04T05:02:54.560Z,102513.19
2023-02-04T05:05:22.228Z,102516.44
2023-02-04T05:07:49.973Z,102530.19
2023-02-04T05:10:18.318Z,102528.97
2023-02-04T05:12:45.960Z,102533.09
2023-02-04T05:15:13.675Z,102550.19
2023-02-04T05:17:42.651Z,102552.59
2023-02-04T05:20:11.232Z,102554.97
2023-02-04T05:22:38.914Z,102558.31
2023-02-04T05:25:07.187Z,102557.19
2023-02-04T05:27:34.793Z,102568.34
2023-02-04T05:30:02.454Z,102568.13
2023-02-04T05:32:30.120Z,102581.13
2023-02-04T05:34:59.043Z,102584.28
2023-02-04T05:37:26.734Z,102588.41
2023-02-04T05:39:54.534Z,102593.41
2023-02-04T05:42:22.303Z,102593.19
2023-02-04T05:44:49.969Z,102599.91
2023-02-04T05:47:18.731Z,102600.50
2023-02-04T05:49:46.345Z,102597.69
2023-02-04T05:52:15.409Z,102598.38
2023-02-04T05:54:43.069Z,102614.75
2023-02-04T05:57:10.700Z,102612.72
2023-02-04T05:59:38.354Z,102604.66
2023-02-04T06:02:05.948Z,102609.66
2023-02-04T06:04:33.635Z,102619.88
2023-02-04T06:07:01.692Z,102620.47
2023-02-04T06:09:30.648Z,102622.75
2023-02-04T06:11:58.484Z,102627.75
2023-02-04T06:14:26.136Z,102632.78
2023-02-04T06:16:53.748Z,102634.34
2023-02-04T06:19:21.438Z,102631.41
2023-02-04T06:21:49.360Z,102639.81
2023-02-04T06:24:16.958Z,102634.34
2023-02-04T06:26:45.990Z,102637.56
2023-02-04T06:29:13.737Z,102642.53
2023-02-04T06:31:41.441Z,102653.69
2023-02-04T06:34:09.137Z,102648.22
2023-02-04T06:36:36.741Z,102664.56
2023-02-04T06:39:04.611Z,102660.03
2023-02-04T06:41:32.316Z,102674.56
2023-02-04T06:44:01.372Z,102677.06
2023-02-04T06:46:29.020Z,102685.66
2023-02-04T06:48:57.147Z,102688.97
2023-02-04T06:51:24.766Z,102684.41
2023-02-04T06:53:52.648Z,102698.28
2023-02-04T06:56:20.255Z,102706.00
2023-02-04T06:58:47.852Z,102711.09
2023-02-04T07:01:16.814Z,102710.97
2023-02-04T07:03:44.455Z,102718.56
2023-02-04T07:06:12.143Z,102722.06
2023-02-04T07:08:40.000Z,102722.00
2023-02-04T07:11:08.051Z,102733.22
2023-02-04T07:13:35.726Z,102747.97
2023-02-04T07:16:03.443Z,102751.47
2023-02-04T07:18:32.490Z,102754.84
2023-02-04T07:21:00.348Z,102761.00
2023-02-04T07:23:28.556Z,102762.03
2023-02-04T07:25:57.443Z,102758.59
2023-02-04T07:28:25.169Z,102768.38
2023-02-04T07:30:53.253Z,102772.59
2023-02-04T07:33:20.917Z,102771.00
2023-02-04T07:35:49.890Z,102769.28
2023-02-04T07:38:17.570Z,102777.25
2023-02-04T07:40:45.136Z,102785.06
2023-02-04T07:43:12.978Z,102774.63
2023-02-04T07:45:40.658Z,102786.09
2023-02-04T07:48:08.262Z,102788.03
2023-02-04T07:50:35.855Z,102791.66
2023-02-04T07:53:05.190Z,102787.47
2023-02-04T07:55:33.171Z,102803.25
2023-02-04T07:58:00.780Z,102810.41
2023-02-04T08:00:28.569Z,102814.94
2023-02-04T08:02:56.308Z,102826.53
2023-02-04T08:05:23.964Z,102825.06
2023-02-04T08:07:51.600Z,102828.03
2023-02-04T08:10:21.459Z,102831.91
2023-02-04T08:12:49.078Z,102831.38
2023-02-04T08:15:16.816Z,102838.50
2023-02-04T08:17:44.445Z,102841.34
2023-02-04T08:20:13.058Z,102843.38
2023-02-04T08:22:40.860Z,102846.25
2023-02-04T08:25:10.122Z,102855.34
2023-02-04T08:27:39.363Z,102850.22
2023-02-04T08:30:08.040Z,102844.44
2023-02-04T08:32:35.833Z,102856.94
2023-02-04T08:35:05.487Z,102859.78
2023-02-04T08:37:34.313Z,102855.69
2023-02-04T08:40:01.896Z,102850.78
2023-02-04T08:42:29.495Z,102857.06
2023-02-04T08:44:58.417Z,102859.88
2023-02-04T08:47:26.089Z,102870.69
2023-02-04T08:49:53.769Z,102866.59
2023-02-04T08:52:21.401Z,102865.94
2023-02-04T08:54:49.010Z,102875.81
2023-02-04T08:57:16.637Z,102875.25
2023-02-04T08:59:45.809Z,102881.81
2023-02-04T09:02:14.833Z,102880.69
2023-02-04T09:04:42.493Z,102886.38
2023-02-04T09:07:10.051Z,102888.06
2023-02-04T09:09:37.827Z,102894.88
2023-02-04T09:12:05.436Z,102894.19
2023-02-04T09:14:33.011Z,102898.78
2023-02-04T09:17:01.264Z,102899.19
2023-02-04T09:19:30.226Z,102905.81
2023-02-04T09:21:57.814Z,102904.59
2023-02-04T09:24:25.496Z,102905.06
2023-02-04T09:26:53.133Z,102898.34
2023-02-04T09:29:20.751Z,102909.16
2023-02-04T09:31:49.068Z,102912.91
2023-02-04T09:34:16.769Z,102921.91
2023-02-04T09:36:45.686Z,102916.16
2023-02-04T09:39:13.431Z,102925.38
2023-02-04T09:41:41.677Z,102930.03
2023-02-04T09:44:17.432Z,102924.22
2023-02-04T09:46:49.452Z,102934.94
2023-02-04T09:49:17.489Z,102933.47
2023-02-04T09:51:47.632Z,102930.88
2023-02-04T09:54:18.213Z,102935.22
2023-02-04T09:56:46.590Z,102937.97
2023-02-04T09:59:16.116Z,102937.34
2023-02-04T10:01:44.032Z,102947.31
2023-02-04T10:04:14.702Z,102954.72
2023-02-04T10:06:43.956Z,102940.78
2023-02-04T10:09:14.533Z,102943.56
2023-02-04T10:11:43.796Z,102953.22
2023-02-04T10:14:14.961Z,102951.44
2023-02-04T10:16:45.061Z,102958.38
2023-02-04T10:19:15.513Z,102949.63
2023-02-04T10:21:45.336Z,102950.53
2023-02-04T10:24:17.113Z,102951.25
2023-02-04T10:26:45.011Z,102953.75
2023-02-04T10:29:17.425Z,102949.38
2023-02-04T10:31:46.866Z,102950.59
2023-02-04T10:34:18.660Z,102958.22
2023-02-04T10:36:49.034Z,102958.69
2023-02-04T10:39:20.621Z,102961.84
2023-02-04T10:41:50.241Z,102965.94
2023-02-04T10:44:21.040Z,102963.97
2023-02-04T10:46:48.834Z,102959.38
2023-02-04T10:49:19.797Z,102973.31
2023-02-04T10:51:49.248Z,102963.13
2023-02-04T10:54:32.231Z,102963.22
2023-02-04T10:57:01.555Z,102964.72
2023-02-04T10:59:29.759Z,102973.78
2023-02-04T11:02:00.314Z,102966.13
2023-02-04T11:04:29.272Z,102961.38
2023-02-04T11:06:56.849Z,102965.19
2023-02-04T11:09:25.853Z,102971.88
2023-02-04T11:11:53.617Z,102969.69
2023-02-04T11:14:28.175Z,102975.16
2023-02-04T11:17:00.760Z,102973.97
2023-02-04T11:19:38.143Z,102979.81
2023-02-04T11:22:08.575Z,102982.25
2023-02-04T11:24:37.495Z,102985.88
2023-02-04T11:27:19.943Z,102983.78
2023-02-04T11:29:48.018Z,102977.59
2023-02-04T11:32:31.463Z,102977.94
2023-02-04T11:35:25.269Z,102991.41
2023-02-04T11:37:55.059Z,102984.53
2023-02-04T11:40:31.097Z,102992.19
2023-02-04T11:43:04.211Z,102996.13
2023-02-04T11:45:34.931Z,103004.56
2023-02-04T11:48:05.367Z,103006.53
2023-02-04T11:50:34.548Z,103005.00
2023-02-04T11:53:03.261Z,103006.28
2023-02-04T11:55:36.068Z,102999.84
2023-02-04T11:58:05.427Z,103007.53
2023-02-04T12:00:34.201Z,103009.25
2023-02-04T12:03:06.167Z,103009.69
2023-02-04T12:05:40.749Z,103000.63
2023-02-04T12:08:13.611Z,103002.38
2023-02-04T12:10:49.413Z,103003.28
2023-02-04T12:13:18.965Z,103004.84
2023-02-04T12:15:56.598Z,103010.13
2023-02-04T12:18:24.223Z,103008.38
2023-02-04T12:20:51.777Z,103014.44
2023-02-04T12:23:19.364Z,103018.59
2023-02-04T12:25:48.698Z,103015.78
2023-02-04T12:28:16.445Z,103018.25
2023-02-04T12:30:44.166Z,103014.47
2023-02-04T12:33:13.560Z,103022.13
2023-02-04T12:35:42.687Z,103022.88
2023-02-04T12:38:11.531Z,103024.38
2023-02-04T12:40:39.275Z,103026.00
2023-02-04T12:43:08.506Z,103027.34
2023-02-04T12:45:36.109Z,103027.81
2023-02-04T12:48:03.794Z,103023.78
2023-02-04T12:50:32.739Z,103024.91
2023-02-04T12:53:01.056Z,103021.84
2023-02-04T12:55:29.974Z,103024.94
2023-02-04T12:57:57.751Z,103034.19
2023-02-04T13:00:27.599Z,103023.94
2023-02-04T13:02:55.975Z,103028.09
2023-02-04T13:05:23.600Z,103028.75
2023-02-04T13:07:51.291Z,103029.44
2023-02-04T13:10:20.033Z,103022.06
2023-02-04T13:12:47.601Z,103021.66
2023-02-04T13:15:15.213Z,103016.66
2023-02-04T13:17:44.234Z,103023.31
2023-02-04T13:20:12.813Z,103023.53
2023-02-04T13:22:40.398Z,103022.25
2023-02-04T13:25:09.476Z,103019.03
2023-02-04T13:27:37.082Z,103015.94
2023-02-04T13:30:05.314Z,103021.44
2023-02-04T13:32:32.925Z,103016.53
2023-02-04T13:35:01.845Z,103018.66
2023-02-04T13:37:29.408Z,103012.63
2023-02-04T13:39:57.017Z,103012.47
2023-02-04T13:42:24.792Z,103024.97
2023-02-04T13:44:52.525Z,103012.19
2023-02-04T13:47:20.165Z,103022.22
2023-02-04T13:49:47.832Z,103029.50
2023-02-04T13:52:18.405Z,103024.72
2023-02-04T13:54:46.091Z,103014.63
2023-02-04T13:57:13.976Z,103022.19
2023-02-04T13:59:41.574Z,103017.25
2023-02-04T14:02:09.966Z,103022.09
2023-02-04T14:04:37.615Z,103023.31
2023-02-04T14:07:05.462Z,103023.56
2023-02-04T14:09:34.400Z,103021.03
2023-02-04T14:12:02.049Z,103020.03
2023-02-04T14:14:29.718Z,103021.94
2023-02-04T14:16:57.440Z,103025.94
2023-02-04T14:19:27.619Z,103028.41
2023-02-04T14:21:55.463Z,103025.75
2023-02-04T14:24:23.068Z,103025.66
2023-02-04T14:26:52.211Z,103039.81
2023-02-04T14:29:19.822Z,103033.09
2023-02-04T14:31:47.418Z,103029.31
2023-02-04T14:34:15.130Z,103037.66
2023-02-04T14:36:42.752Z,103034.53
2023-02-04T14:39:10.344Z,103033.00
2023-02-04T14:41:38.015Z,103045.25
2023-02-04T14:44:07.088Z,103046.66
2023-02-04T14:46:34.738Z,103045.50
2023-02-04T14:49:02.445Z,103045.91
2023-02-04T14:51:30.052Z,103048.91
2023-02-04T14:53:57.723Z,103050.22
2023-02-04T14:56:25.338Z,103056.47
2023-02-04T14:58:52.961Z,103053.66
2023-02-04T15:01:22.453Z,103062.28
2023-02-04T15:03:50.921Z,103058.88
2023-02-04T15:06:18.520Z,103056.28
2023-02-04T15:08:46.361Z,103062.63
2023-02-04T15:11:14.127Z,103058.59
2023-02-04T15:13:41.789Z,103055.56
2023-02-04T15:16:09.497Z,103071.09
2023-02-04T15:18:38.558Z,103073.06
2023-02-04T15:21:06.610Z,103070.41
2023-02-04T15:23:34.263Z,103065.38
2023-02-04T15:26:01.846Z,103070.03
2023-02-04T15:28:31.002Z,103076.38
2023-02-04T15:30:58.788Z,103071.41
2023-02-04T15:33:26.660Z,103065.56
2023-02-04T15:35:55.649Z,103071.94
2023-02-04T15:38:23.274Z,103068.81
2023-02-04T15:40:50.881Z,103069.13
2023-02-04T15:43:18.478Z,103069.50
2023-02-04T15:45:46.044Z,103072.44
2023-02-04T15:48:13.714Z,103063.78
2023-02-04T15:50:41.422Z,103067.56
2023-02-04T15:53:10.402Z,103076.44
2023-02-04T15:55:38.029Z,103071.25
2023-02-04T15:58:05.644Z,103087.31
2023-02-04T16:00:33.535Z,103086.78
2023-02-04T16:03:01.610Z,103088.88
2023-02-04T16:05:29.235Z,103086.50
2023-02-04T16:07:56.938Z,103092.91
2023-02-04T16:10:25.983Z,103092.25
2023-02-04T16:12:54.977Z,103095.91
2023-02-04T16:15:22.587Z,103102.31
2023-02-04T16:17:51.018Z,103100.72
2023-02-04T16:20:19.345Z,103105.28
2023-02-04T16:22:46.959Z,103109.06
2023-02-04T16:25:14.732Z,103111.91
2023-02-04T16:27:43.813Z,103110.38
2023-02-04T16:30:13.026Z,103109.75
2023-02-04T16:32:40.708Z,103105.53
2023-02-04T16:35:09.012Z,103099.66
2023-02-04T16:37:37.769Z,103107.72
2023-02-04T16:40:06.196Z,103107.91
2023-02-04T16:42:33.887Z,103109.94
2023-02-04T16:45:02.908Z,103108.50
2023-02-04T16:47:30.590Z,103109.56
2023-02-04T16:50:00.878Z,103113.28
2023-02-04T16:52:28.570Z,103107.41
2023-02-04T16:54:56.287Z,103120.66
2023-02-04T16:57:23.911Z,103114.91
2023-02-04T16:59:51.589Z,103114.25
2023-02-04T17:02:20.503Z,103125.81
2023-02-04T17:04:48.146Z,103119.09
2023-02-04T17:07:15.870Z,103117.63
2023-02-04T17:09:43.852Z,103117.88
2023-02-04T17:12:11.541Z,103119.16
2023-02-04T17:14:41.099Z,103115.78
2023-02-04T17:17:09.038Z,103117.81
2023-02-04T17:19:38.063Z,103122.50
2023-02-04T17:22:05.707Z,103115.78
2023-02-04T17:24:33.577Z,103118.88
2023-02-04T17:27:03.307Z,103116.56
2023-02-04T17:29:30.939Z,103113.41
2023-02-04T17:31:58.517Z,103112.94
2023-02-04T17:34:26.399Z,103120.34
2023-02-04T17:36:55.558Z,103115.53
2023-02-04T17:39:23.291Z,103114.16
2023-02-04T17:41:50.883Z,103124.19
2023-02-04T17:44:20.029Z,103129.84
2023-02-04T17:46:47.819Z,103131.13
2023-02-04T17:49:16.131Z,103134.16
2023-02-04T17:51:43.780Z,103138.13
2023-02-04T17:54:13.292Z,103135.94
2023-02-04T17:56:40.878Z,103133.78
2023-02-04T17:59:11.074Z,103140.34
2023-02-04T18:01:38.891Z,103138.16
2023-02-04T18:04:11.623Z,103148.28
2023-02-04T18:06:39.354Z,103141.66
2023-02-04T18:09:15.479Z,103152.63
2023-02-04T18:11:43.681Z,103153.06
2023-02-04T18:14:16.167Z,103148.41
2023-02-04T18:16:44.395Z,103158.38
2023-02-04T18:19:18.806Z,103156.19
2023-02-04T18:21:47.112Z,103151.38
2023-02-04T18:24:19.342Z,103149.19
2023-02-04T18:26:48.702Z,103148.81
2023-02-04T18:29:29.480Z,103151.84
2023-02-04T18:31:59.361Z,103149.66
2023-02-04T18:34:34.194Z,103151.75
2023-02-04T18:37:21.343Z,103157.53
2023-02-04T18:39:50.546Z,103166.69
2023-02-04T18:42:23.639Z,103159.38
2023-02-04T18:44:52.500Z,103163.31
2023-02-04T18:47:31.499Z,103160.34
2023-02-04T18:50:01.061Z,103168.69
2023-02-04T18:52:37.336Z,103155.38
2023-02-04T18:55:23.521Z,103169.00
2023-02-04T18:57:51.196Z,103162.59
2023-02-04T19:00:37.276Z,103168.47
2023-02-04T19:03:23.871Z,103165.63
2023-02-04T19:05:51.898Z,103161.81
2023-02-04T19:08:28.323Z,103156.38
2023-02-04T19:10:58.491Z,103151.03
2023-02-04T19:13:27.882Z,103149.88
2023-02-04T19:16:01.940Z,103146.09
2023-02-04T19:18:33.932Z,103161.63
2023-02-04T19:21:22.273Z,103160.44
2023-02-04T19:23:50.959Z,103164.47
2023-02-04T19:26:30.669Z,103160.69
2023-02-04T19:28:58.421Z,103173.59
2023-02-04T19:31:33.318Z,103171.53
2023-02-04T19:34:16.986Z,103177.44
2023-02-04T19:36:44.612Z,103182.25
2023-02-04T19:39:26.025Z,103188.09
2023-02-04T19:41:55.282Z,103193.97
2023-02-04T19:44:43.383Z,103202.44
2023-02-04T19:47:24.430Z,103196.19
2023-02-04T19:49:52.944Z,103203.75
2023-02-04T19:52:35.979Z,103202.69
2023-02-04T19:55:24.858Z,103205.97
2023-02-04T19:57:55.101Z,103201.53
2023-02-04T20:00:39.624Z,103204.66
2023-02-04T20:03:28.259Z,103206.06
2023-02-04T20:05:56.266Z,103195.28
2023-02-04T20:08:40.827Z,103199.31
2023-02-04T20:11:34.651Z,103191.06
2023-02-04T20:14:21.046Z,103193.16
2023-02-04T20:16:52.643Z,103191.06
2023-02-04T20:19:22.796Z,103188.19
2023-02-04T20:22:07.556Z,103190.66
2023-02-04T20:24:37.437Z,103192.22
2023-02-04T20:27:16.670Z,103205.25
2023-02-04T20:29:45.751Z,103214.50
2023-02-04T20:32:21.294Z,103215.25
2023-02-04T20:34:48.899Z,103210.72
2023-02-04T20:37:23.068Z,103214.88
2023-02-04T20:39:50.653Z,103206.78
2023-02-04T20:42:35.202Z,103218.88
2023-02-04T20:45:23.701Z,103219.69
2023-02-04T20:47:53.971Z,103214.19
2023-02-04T20:50:36.192Z,103222.66
2023-02-04T20:53:07.959Z,103222.53
2023-02-04T20:55:35.948Z,103223.16
2023-02-04T20:58:20.230Z,103216.00
2023-02-04T21:00:52.590Z,103228.06
2023-02-04T21:03:26.881Z,103217.41
2023-02-04T21:05:56.109Z,103228.47
2023-02-04T21:08:34.485Z,103227.28
2023-02-04T21:11:03.293Z,103221.78
2023-02-04T21:13:31.249Z,103229.31
2023-02-04T21:16:00.402Z,103227.38
2023-02-04T21:18:29.521Z,103224.63
2023-02-04T21:20:57.555Z,103222.41
2023-02-04T21:23:25.245Z,103229.28
2023-02-04T21:25:52.863Z,103219.50
2023-02-04T21:28:20.490Z,103218.47
2023-02-04T21:30:48.391Z,103212.19
2023-02-04T21:33:17.396Z,103217.13
2023-02-04T21:35:45.377Z,103223.88
2023-02-04T21:38:12.980Z,103228.03
2023-02-04T21:40:40.709Z,103221.78
2023-02-04T21:43:08.613Z,103219.03
2023-02-04T21:45:37.944Z,103218.91
2023-02-04T21:48:07.802Z,103213.41
2023-02-04T21:50:39.239Z,103215.91
2023-02-04T21:53:08.019Z,103223.56
2023-02-04T21:55:36.610Z,103213.78
2023-02-04T21:58:04.738Z,103215.34
2023-02-04T22:00:33.194Z,103211.94
2023-02-04T22:03:00.997Z,103205.69
2023-02-04T22:05:28.671Z,103215.03
2023-02-04T22:07:59.747Z,103217.66
2023-02-04T22:10:27.499Z,103214.91
2023-02-04T22:12:55.141Z,103223.50
2023-02-04T22:15:24.152Z,103226.72
2023-02-04T22:17:53.889Z,103225.97
2023-02-04T22:20:23.043Z,103230.22
2023-02-04T22:22:51.106Z,103228.72
2023-02-04T22:25:21.204Z,103232.34
2023-02-04T22:27:49.510Z,103232.34
2023-02-04T22:30:18.570Z,103236.00
2023-02-04T22:32:46.208Z,103243.97
2023-02-04T22:35:14.196Z,103236.91
2023-02-04T22:37:42.748Z,103238.75
2023-02-04T22:40:12.164Z,103226.66
2023-02-04T22:42:41.593Z,103234.59
2023-02-04T22:45:11.132Z,103214.53
2023-02-04T22:47:38.883Z,103230.44
2023-02-04T22:50:07.068Z,103235.50
2023-02-04T22:52:34.770Z,103235.50
2023-02-04T22:55:02.389Z,103228.47
2023-02-04T22:57:30.027Z,103241.50
2023-02-04T22:59:59.120Z,103242.41
2023-02-04T23:02:26.712Z,103237.97
2023-02-04T23:04:54.309Z,103233.56
2023-02-04T23:07:21.973Z,103230.03
2023-02-04T23:09:49.585Z,103227.28
2023-02-04T23:12:17.221Z,103227.16
2023-02-04T23:14:46.726Z,103233.91
2023-02-04T23:17:17.556Z,103232.84
2023-02-04T23:19:45.256Z,103233.47
2023-02-04T23:22:14.200Z,103234.38
2023-02-04T23:24:42.664Z,103235.19
2023-02-04T23:27:11.482Z,103235.03
2023-02-04T23:29:39.882Z,103237.63
2023-02-04T23:32:08.343Z,103230.59
2023-02-04T23:34:37.367Z,103229.69
2023-02-04T23:37:05.067Z,103237.50
2023-02-04T23:39:32.765Z,103235.78
2023-02-04T23:42:00.378Z,103241.66
2023-02-04T23:44:28.077Z,103236.31
2023-02-04T23:46:55.657Z,103239.53
2023-02-04T23:49:23.263Z,103240.16
2023-02-04T23:51:52.174Z,103237.28
2023-02-04T23:54:19.809Z,103238.69
2023-02-04T23:56:47.417Z,103262.84
2023-02-04T23:59:15.023Z,103251.25
